sensor_id;sensor_type;location;lat;lon;timestamp;P1;durP1;ratioP1;P2;durP2;ratioP2
71176;SDS011;58877;51.992;4.504;2023-03-01T00:00:23;15.41;;;15.31;;
71176;SDS011;58877;51.992;4.504;2023-03-01T00:02:50;15.05;;;15.05;;
71176;SDS011;58877;51.992;4.504;2023-03-01T00:05:17;15.33;;;15.30;;
71176;SDS011;58877;51.992;4.504;2023-03-01T00:07:42;15.75;;;15.74;;
71176;SDS011;58877;51.992;4.504;2023-03-01T00:10:08;15.11;;;15.11;;
71176;SDS011;58877;51.992;4.504;2023-03-01T00:12:34;14.80;;;14.80;;
71176;SDS011;58877;51.992;4.504;2023-03-01T00:15:01;15.07;;;15.07;;
71176;SDS011;58877;51.992;4.504;2023-03-01T00:17:27;14.86;;;14.86;;
71176;SDS011;58877;51.992;4.504;2023-03-01T00:19:53;16.15;;;16.07;;
71176;SDS011;58877;51.992;4.504;2023-03-01T00:22:19;16.19;;;16.16;;
71176;SDS011;58877;51.992;4.504;2023-03-01T00:24:44;15.64;;;15.57;;
71176;SDS011;58877;51.992;4.504;2023-03-01T00:27:10;15.19;;;15.17;;
71176;SDS011;58877;51.992;4.504;2023-03-01T00:29:36;14.99;;;14.97;;
71176;SDS011;58877;51.992;4.504;2023-03-01T00:32:01;15.31;;;15.31;;
71176;SDS011;58877;51.992;4.504;2023-03-01T00:34:27;15.55;;;15.52;;
71176;SDS011;58877;51.992;4.504;2023-03-01T00:36:52;15.52;;;15.40;;
71176;SDS011;58877;51.992;4.504;2023-03-01T00:39:18;16.16;;;15.91;;
71176;SDS011;58877;51.992;4.504;2023-03-01T00:41:43;15.36;;;15.34;;
71176;SDS011;58877;51.992;4.504;2023-03-01T00:44:09;15.86;;;15.78;;
71176;SDS011;58877;51.992;4.504;2023-03-01T00:46:35;16.41;;;16.26;;
71176;SDS011;58877;51.992;4.504;2023-03-01T00:49:03;16.98;;;16.94;;
71176;SDS011;58877;51.992;4.504;2023-03-01T00:51:29;17.71;;;17.69;;
71176;SDS011;58877;51.992;4.504;2023-03-01T00:53:56;16.90;;;16.90;;
71176;SDS011;58877;51.992;4.504;2023-03-01T00:56:24;16.32;;;16.29;;
71176;SDS011;58877;51.992;4.504;2023-03-01T00:58:50;16.78;;;16.78;;
71176;SDS011;58877;51.992;4.504;2023-03-01T01:01:16;17.22;;;17.09;;
71176;SDS011;58877;51.992;4.504;2023-03-01T01:06:14;16.41;;;16.18;;
71176;SDS011;58877;51.992;4.504;2023-03-01T01:08:43;16.42;;;16.29;;
71176;SDS011;58877;51.992;4.504;2023-03-01T01:11:10;16.68;;;16.67;;
71176;SDS011;58877;51.992;4.504;2023-03-01T01:13:37;15.80;;;15.76;;
71176;SDS011;58877;51.992;4.504;2023-03-01T01:16:03;16.97;;;16.91;;
71176;SDS011;58877;51.992;4.504;2023-03-01T01:18:29;15.81;;;15.72;;
71176;SDS011;58877;51.992;4.504;2023-03-01T01:20:55;16.47;;;16.41;;
71176;SDS011;58877;51.992;4.504;2023-03-01T01:23:20;15.85;;;15.85;;
71176;SDS011;58877;51.992;4.504;2023-03-01T01:25:46;15.89;;;15.82;;
71176;SDS011;58877;51.992;4.504;2023-03-01T01:28:12;16.01;;;15.92;;
71176;SDS011;58877;51.992;4.504;2023-03-01T01:30:37;16.72;;;16.53;;
71176;SDS011;58877;51.992;4.504;2023-03-01T01:33:03;16.76;;;16.49;;
71176;SDS011;58877;51.992;4.504;2023-03-01T01:35:28;17.28;;;17.18;;
71176;SDS011;58877;51.992;4.504;2023-03-01T01:37:54;17.21;;;17.21;;
71176;SDS011;58877;51.992;4.504;2023-03-01T01:40:20;16.83;;;16.79;;
71176;SDS011;58877;51.992;4.504;2023-03-01T01:42:45;17.31;;;17.25;;
71176;SDS011;58877;51.992;4.504;2023-03-01T01:45:28;18.36;;;18.18;;
71176;SDS011;58877;51.992;4.504;2023-03-01T01:47:55;18.21;;;18.13;;
71176;SDS011;58877;51.992;4.504;2023-03-01T01:50:37;16.89;;;16.83;;
71176;SDS011;58877;51.992;4.504;2023-03-01T01:53:12;17.89;;;17.85;;
71176;SDS011;58877;51.992;4.504;2023-03-01T01:55:47;17.30;;;17.22;;
71176;SDS011;58877;51.992;4.504;2023-03-01T01:58:19;18.03;;;17.77;;
71176;SDS011;58877;51.992;4.504;2023-03-01T02:00:47;18.59;;;18.41;;
71176;SDS011;58877;51.992;4.504;2023-03-01T02:03:18;18.41;;;18.23;;
71176;SDS011;58877;51.992;4.504;2023-03-01T02:05:59;19.40;;;19.20;;
71176;SDS011;58877;51.992;4.504;2023-03-01T02:08:33;19.09;;;18.79;;
71176;SDS011;58877;51.992;4.504;2023-03-01T02:11:02;19.14;;;19.07;;
71176;SDS011;58877;51.992;4.504;2023-03-01T02:13:33;19.02;;;18.92;;
71176;SDS011;58877;51.992;4.504;2023-03-01T02:18:50;19.19;;;19.08;;
71176;SDS011;58877;51.992;4.504;2023-03-01T02:23:59;20.08;;;20.07;;
71176;SDS011;58877;51.992;4.504;2023-03-01T02:26:37;19.17;;;19.06;;
71176;SDS011;58877;51.992;4.504;2023-03-01T02:29:07;20.41;;;20.14;;
71176;SDS011;58877;51.992;4.504;2023-03-01T02:31:33;19.74;;;19.53;;
71176;SDS011;58877;51.992;4.504;2023-03-01T02:34:10;19.28;;;19.09;;
71176;SDS011;58877;51.992;4.504;2023-03-01T02:39:17;19.81;;;19.59;;
71176;SDS011;58877;51.992;4.504;2023-03-01T02:41:48;20.01;;;19.62;;
71176;SDS011;58877;51.992;4.504;2023-03-01T02:44:17;20.22;;;19.92;;
71176;SDS011;58877;51.992;4.504;2023-03-01T02:46:47;20.06;;;19.99;;
71176;SDS011;58877;51.992;4.504;2023-03-01T02:49:18;19.65;;;19.57;;
71176;SDS011;58877;51.992;4.504;2023-03-01T02:57:25;19.38;;;19.07;;
71176;SDS011;58877;51.992;4.504;2023-03-01T02:59:57;20.60;;;20.26;;
71176;SDS011;58877;51.992;4.504;2023-03-01T03:02:32;21.07;;;20.72;;
71176;SDS011;58877;51.992;4.504;2023-03-01T03:05:06;21.05;;;20.65;;
71176;SDS011;58877;51.992;4.504;2023-03-01T03:07:34;20.15;;;20.09;;
71176;SDS011;58877;51.992;4.504;2023-03-01T03:10:00;21.39;;;21.16;;
71176;SDS011;58877;51.992;4.504;2023-03-01T03:12:27;20.74;;;20.62;;
71176;SDS011;58877;51.992;4.504;2023-03-01T03:14:53;20.88;;;20.54;;
71176;SDS011;58877;51.992;4.504;2023-03-01T03:17:18;21.94;;;21.66;;
71176;SDS011;58877;51.992;4.504;2023-03-01T03:19:44;22.40;;;22.19;;
71176;SDS011;58877;51.992;4.504;2023-03-01T03:22:13;22.44;;;22.21;;
71176;SDS011;58877;51.992;4.504;2023-03-01T03:24:39;22.83;;;22.53;;
71176;SDS011;58877;51.992;4.504;2023-03-01T03:27:05;21.98;;;21.79;;
71176;SDS011;58877;51.992;4.504;2023-03-01T03:29:31;22.06;;;21.82;;
71176;SDS011;58877;51.992;4.504;2023-03-01T03:31:57;22.03;;;21.83;;
71176;SDS011;58877;51.992;4.504;2023-03-01T03:34:23;22.98;;;22.73;;
71176;SDS011;58877;51.992;4.504;2023-03-01T03:36:58;22.46;;;22.19;;
71176;SDS011;58877;51.992;4.504;2023-03-01T03:39:25;22.46;;;22.28;;
71176;SDS011;58877;51.992;4.504;2023-03-01T03:42:00;22.27;;;22.12;;
71176;SDS011;58877;51.992;4.504;2023-03-01T03:44:25;22.47;;;22.13;;
71176;SDS011;58877;51.992;4.504;2023-03-01T03:46:51;24.13;;;23.50;;
71176;SDS011;58877;51.992;4.504;2023-03-01T03:49:17;22.47;;;22.21;;
71176;SDS011;58877;51.992;4.504;2023-03-01T03:51:42;23.10;;;22.65;;
71176;SDS011;58877;51.992;4.504;2023-03-01T03:54:10;23.60;;;23.08;;
71176;SDS011;58877;51.992;4.504;2023-03-01T03:56:36;22.45;;;22.10;;
71176;SDS011;58877;51.992;4.504;2023-03-01T03:59:01;22.15;;;21.87;;
71176;SDS011;58877;51.992;4.504;2023-03-01T04:01:27;21.84;;;21.51;;
71176;SDS011;58877;51.992;4.504;2023-03-01T04:03:52;21.05;;;20.80;;
71176;SDS011;58877;51.992;4.504;2023-03-01T04:06:19;20.17;;;20.01;;
71176;SDS011;58877;51.992;4.504;2023-03-01T04:08:45;20.96;;;20.66;;
71176;SDS011;58877;51.992;4.504;2023-03-01T04:11:11;20.79;;;20.36;;
71176;SDS011;58877;51.992;4.504;2023-03-01T04:13:53;22.02;;;21.76;;
71176;SDS011;58877;51.992;4.504;2023-03-01T04:16:21;21.47;;;21.27;;
71176;SDS011;58877;51.992;4.504;2023-03-01T04:18:47;22.57;;;22.26;;
71176;SDS011;58877;51.992;4.504;2023-03-01T04:21:13;22.55;;;22.21;;
71176;SDS011;58877;51.992;4.504;2023-03-01T04:23:39;22.61;;;22.46;;
71176;SDS011;58877;51.992;4.504;2023-03-01T04:26:06;24.16;;;23.89;;
71176;SDS011;58877;51.992;4.504;2023-03-01T04:28:33;25.01;;;24.74;;
71176;SDS011;58877;51.992;4.504;2023-03-01T04:31:06;25.13;;;24.82;;
71176;SDS011;58877;51.992;4.504;2023-03-01T04:33:49;25.81;;;25.48;;
71176;SDS011;58877;51.992;4.504;2023-03-01T04:36:20;26.33;;;25.98;;
71176;SDS011;58877;51.992;4.504;2023-03-01T04:38:51;26.60;;;26.24;;
71176;SDS011;58877;51.992;4.504;2023-03-01T04:41:18;25.97;;;25.64;;
71176;SDS011;58877;51.992;4.504;2023-03-01T04:43:45;25.23;;;25.00;;
71176;SDS011;58877;51.992;4.504;2023-03-01T04:46:13;25.92;;;25.56;;
71176;SDS011;58877;51.992;4.504;2023-03-01T04:48:41;26.05;;;25.13;;
71176;SDS011;58877;51.992;4.504;2023-03-01T04:51:08;25.57;;;25.10;;
71176;SDS011;58877;51.992;4.504;2023-03-01T04:53:38;24.63;;;24.31;;
71176;SDS011;58877;51.992;4.504;2023-03-01T04:56:04;25.37;;;24.93;;
71176;SDS011;58877;51.992;4.504;2023-03-01T04:58:31;25.85;;;25.05;;
71176;SDS011;58877;51.992;4.504;2023-03-01T05:00:56;25.47;;;24.39;;
71176;SDS011;58877;51.992;4.504;2023-03-01T05:03:22;25.52;;;24.81;;
71176;SDS011;58877;51.992;4.504;2023-03-01T05:05:49;24.21;;;23.58;;
71176;SDS011;58877;51.992;4.504;2023-03-01T05:08:16;23.56;;;23.18;;
71176;SDS011;58877;51.992;4.504;2023-03-01T05:10:46;23.24;;;23.01;;
71176;SDS011;58877;51.992;4.504;2023-03-01T05:13:14;22.95;;;22.82;;
71176;SDS011;58877;51.992;4.504;2023-03-01T05:18:25;22.43;;;22.25;;
71176;SDS011;58877;51.992;4.504;2023-03-01T05:20:52;22.98;;;22.88;;
71176;SDS011;58877;51.992;4.504;2023-03-01T05:23:23;22.78;;;22.63;;
71176;SDS011;58877;51.992;4.504;2023-03-01T05:25:49;21.27;;;21.15;;
71176;SDS011;58877;51.992;4.504;2023-03-01T05:28:17;21.40;;;21.18;;
71176;SDS011;58877;51.992;4.504;2023-03-01T05:30:45;20.41;;;20.39;;
71176;SDS011;58877;51.992;4.504;2023-03-01T05:33:11;21.02;;;20.94;;
71176;SDS011;58877;51.992;4.504;2023-03-01T05:35:41;20.70;;;20.40;;
71176;SDS011;58877;51.992;4.504;2023-03-01T05:38:11;20.20;;;20.08;;
71176;SDS011;58877;51.992;4.504;2023-03-01T05:40:44;20.31;;;20.30;;
71176;SDS011;58877;51.992;4.504;2023-03-01T05:43:12;19.77;;;19.76;;
71176;SDS011;58877;51.992;4.504;2023-03-01T05:45:40;20.22;;;20.05;;
71176;SDS011;58877;51.992;4.504;2023-03-01T05:48:07;21.40;;;21.00;;
71176;SDS011;58877;51.992;4.504;2023-03-01T05:50:35;20.42;;;20.34;;
71176;SDS011;58877;51.992;4.504;2023-03-01T05:53:05;20.28;;;19.90;;
71176;SDS011;58877;51.992;4.504;2023-03-01T05:55:34;19.95;;;19.79;;
71176;SDS011;58877;51.992;4.504;2023-03-01T05:58:01;19.55;;;19.47;;
71176;SDS011;58877;51.992;4.504;2023-03-01T06:00:30;19.82;;;19.54;;
71176;SDS011;58877;51.992;4.504;2023-03-01T06:02:58;19.86;;;19.64;;
71176;SDS011;58877;51.992;4.504;2023-03-01T06:05:25;19.53;;;19.47;;
71176;SDS011;58877;51.992;4.504;2023-03-01T06:07:52;19.92;;;19.58;;
71176;SDS011;58877;51.992;4.504;2023-03-01T06:10:18;19.55;;;19.32;;
71176;SDS011;58877;51.992;4.504;2023-03-01T06:12:46;19.71;;;19.48;;
71176;SDS011;58877;51.992;4.504;2023-03-01T06:15:13;19.92;;;19.63;;
71176;SDS011;58877;51.992;4.504;2023-03-01T06:17:42;20.08;;;19.71;;
71176;SDS011;58877;51.992;4.504;2023-03-01T06:20:12;20.06;;;19.71;;
71176;SDS011;58877;51.992;4.504;2023-03-01T06:22:42;19.42;;;19.07;;
71176;SDS011;58877;51.992;4.504;2023-03-01T06:25:08;20.56;;;20.27;;
71176;SDS011;58877;51.992;4.504;2023-03-01T06:27:35;20.33;;;20.10;;
71176;SDS011;58877;51.992;4.504;2023-03-01T06:30:01;19.76;;;19.34;;
71176;SDS011;58877;51.992;4.504;2023-03-01T06:32:27;19.24;;;19.20;;
71176;SDS011;58877;51.992;4.504;2023-03-01T06:34:53;19.87;;;19.75;;
71176;SDS011;58877;51.992;4.504;2023-03-01T06:37:18;19.72;;;19.37;;
71176;SDS011;58877;51.992;4.504;2023-03-01T06:39:44;19.38;;;18.96;;
71176;SDS011;58877;51.992;4.504;2023-03-01T06:42:09;20.03;;;19.66;;
71176;SDS011;58877;51.992;4.504;2023-03-01T06:44:35;21.78;;;21.45;;
71176;SDS011;58877;51.992;4.504;2023-03-01T06:47:01;20.91;;;20.63;;
71176;SDS011;58877;51.992;4.504;2023-03-01T06:49:28;20.20;;;19.91;;
71176;SDS011;58877;51.992;4.504;2023-03-01T06:51:55;19.88;;;19.56;;
71176;SDS011;58877;51.992;4.504;2023-03-01T06:54:21;19.68;;;19.58;;
71176;SDS011;58877;51.992;4.504;2023-03-01T06:56:48;19.53;;;19.30;;
71176;SDS011;58877;51.992;4.504;2023-03-01T06:59:15;20.34;;;20.09;;
71176;SDS011;58877;51.992;4.504;2023-03-01T07:01:41;20.07;;;19.96;;
71176;SDS011;58877;51.992;4.504;2023-03-01T07:04:08;19.06;;;18.88;;
71176;SDS011;58877;51.992;4.504;2023-03-01T07:06:34;19.10;;;19.08;;
71176;SDS011;58877;51.992;4.504;2023-03-01T07:09:00;18.66;;;18.53;;
71176;SDS011;58877;51.992;4.504;2023-03-01T07:11:25;19.73;;;19.59;;
71176;SDS011;58877;51.992;4.504;2023-03-01T07:13:51;19.72;;;19.55;;
71176;SDS011;58877;51.992;4.504;2023-03-01T07:16:20;18.52;;;18.44;;
71176;SDS011;58877;51.992;4.504;2023-03-01T07:18:46;19.60;;;19.43;;
71176;SDS011;58877;51.992;4.504;2023-03-01T07:21:12;19.16;;;19.06;;
71176;SDS011;58877;51.992;4.504;2023-03-01T07:23:39;19.04;;;18.89;;
71176;SDS011;58877;51.992;4.504;2023-03-01T07:26:05;20.30;;;20.27;;
71176;SDS011;58877;51.992;4.504;2023-03-01T07:28:30;19.16;;;19.04;;
71176;SDS011;58877;51.992;4.504;2023-03-01T07:31:04;20.23;;;20.20;;
71176;SDS011;58877;51.992;4.504;2023-03-01T07:33:31;20.34;;;20.13;;
71176;SDS011;58877;51.992;4.504;2023-03-01T07:35:58;20.03;;;19.87;;
71176;SDS011;58877;51.992;4.504;2023-03-01T07:38:25;19.70;;;19.64;;
71176;SDS011;58877;51.992;4.504;2023-03-01T07:40:52;20.23;;;20.12;;
71176;SDS011;58877;51.992;4.504;2023-03-01T07:43:18;21.06;;;20.86;;
71176;SDS011;58877;51.992;4.504;2023-03-01T07:45:45;22.69;;;22.20;;
71176;SDS011;58877;51.992;4.504;2023-03-01T07:48:11;21.15;;;20.99;;
71176;SDS011;58877;51.992;4.504;2023-03-01T07:50:37;20.59;;;20.49;;
71176;SDS011;58877;51.992;4.504;2023-03-01T07:53:02;20.64;;;20.57;;
71176;SDS011;58877;51.992;4.504;2023-03-01T07:55:28;20.39;;;20.30;;
71176;SDS011;58877;51.992;4.504;2023-03-01T07:57:54;20.73;;;20.69;;
71176;SDS011;58877;51.992;4.504;2023-03-01T08:00:19;21.15;;;21.10;;
71176;SDS011;58877;51.992;4.504;2023-03-01T08:02:45;20.80;;;20.70;;
71176;SDS011;58877;51.992;4.504;2023-03-01T08:05:11;21.07;;;21.01;;
71176;SDS011;58877;51.992;4.504;2023-03-01T08:07:38;21.09;;;20.99;;
71176;SDS011;58877;51.992;4.504;2023-03-01T08:10:03;20.62;;;20.40;;
71176;SDS011;58877;51.992;4.504;2023-03-01T08:12:29;21.43;;;21.25;;
71176;SDS011;58877;51.992;4.504;2023-03-01T08:14:57;20.73;;;20.63;;
71176;SDS011;58877;51.992;4.504;2023-03-01T08:17:22;20.81;;;20.67;;
71176;SDS011;58877;51.992;4.504;2023-03-01T08:19:49;20.81;;;20.56;;
71176;SDS011;58877;51.992;4.504;2023-03-01T08:22:18;20.37;;;20.16;;
71176;SDS011;58877;51.992;4.504;2023-03-01T08:24:43;20.67;;;20.55;;
71176;SDS011;58877;51.992;4.504;2023-03-01T08:27:09;20.37;;;20.36;;
71176;SDS011;58877;51.992;4.504;2023-03-01T08:29:38;20.10;;;20.09;;
71176;SDS011;58877;51.992;4.504;2023-03-01T08:32:04;18.16;;;18.12;;
71176;SDS011;58877;51.992;4.504;2023-03-01T08:34:33;18.56;;;18.44;;
71176;SDS011;58877;51.992;4.504;2023-03-01T08:37:00;19.07;;;18.87;;
71176;SDS011;58877;51.992;4.504;2023-03-01T08:39:26;18.88;;;18.74;;
71176;SDS011;58877;51.992;4.504;2023-03-01T08:41:53;18.10;;;17.93;;
71176;SDS011;58877;51.992;4.504;2023-03-01T08:44:19;18.87;;;18.71;;
71176;SDS011;58877;51.992;4.504;2023-03-01T08:46:48;18.64;;;18.39;;
71176;SDS011;58877;51.992;4.504;2023-03-01T08:49:16;17.62;;;17.44;;
71176;SDS011;58877;51.992;4.504;2023-03-01T08:51:43;16.61;;;16.44;;
71176;SDS011;58877;51.992;4.504;2023-03-01T08:54:11;15.77;;;15.71;;
71176;SDS011;58877;51.992;4.504;2023-03-01T08:56:40;15.38;;;15.28;;
71176;SDS011;58877;51.992;4.504;2023-03-01T08:59:06;15.01;;;14.84;;
71176;SDS011;58877;51.992;4.504;2023-03-01T09:01:33;14.04;;;14.01;;
71176;SDS011;58877;51.992;4.504;2023-03-01T09:03:59;13.30;;;13.29;;
71176;SDS011;58877;51.992;4.504;2023-03-01T09:06:25;14.29;;;14.17;;
71176;SDS011;58877;51.992;4.504;2023-03-01T09:08:51;13.57;;;13.54;;
71176;SDS011;58877;51.992;4.504;2023-03-01T09:11:21;12.73;;;12.66;;
71176;SDS011;58877;51.992;4.504;2023-03-01T09:13:48;12.38;;;12.35;;
71176;SDS011;58877;51.992;4.504;2023-03-01T09:16:17;12.37;;;12.26;;
71176;SDS011;58877;51.992;4.504;2023-03-01T09:18:48;11.92;;;11.91;;
71176;SDS011;58877;51.992;4.504;2023-03-01T09:21:31;11.81;;;11.81;;
71176;SDS011;58877;51.992;4.504;2023-03-01T09:24:01;11.40;;;11.40;;
71176;SDS011;58877;51.992;4.504;2023-03-01T09:26:34;11.04;;;10.99;;
71176;SDS011;58877;51.992;4.504;2023-03-01T09:29:14;10.94;;;10.92;;
71176;SDS011;58877;51.992;4.504;2023-03-01T09:31:48;11.70;;;11.62;;
71176;SDS011;58877;51.992;4.504;2023-03-01T09:34:14;11.71;;;11.55;;
71176;SDS011;58877;51.992;4.504;2023-03-01T09:36:41;11.49;;;11.35;;
71176;SDS011;58877;51.992;4.504;2023-03-01T09:39:07;11.75;;;11.61;;
71176;SDS011;58877;51.992;4.504;2023-03-01T09:44:23;10.23;;;10.13;;
71176;SDS011;58877;51.992;4.504;2023-03-01T09:47:05;9.86;;;9.84;;
71176;SDS011;58877;51.992;4.504;2023-03-01T09:50:06;9.87;;;9.87;;
71176;SDS011;58877;51.992;4.504;2023-03-01T09:55:16;9.59;;;9.44;;
71176;SDS011;58877;51.992;4.504;2023-03-01T10:03:10;9.80;;;9.74;;
71176;SDS011;58877;51.992;4.504;2023-03-01T10:05:50;8.57;;;8.47;;
71176;SDS011;58877;51.992;4.504;2023-03-01T10:11:35;8.06;;;7.96;;
71176;SDS011;58877;51.992;4.504;2023-03-01T10:16:55;7.87;;;7.85;;
71176;SDS011;58877;51.992;4.504;2023-03-01T10:19:37;8.05;;;8.02;;
71176;SDS011;58877;51.992;4.504;2023-03-01T10:22:11;7.76;;;7.72;;
71176;SDS011;58877;51.992;4.504;2023-03-01T10:24:49;6.89;;;6.89;;
71176;SDS011;58877;51.992;4.504;2023-03-01T10:27:26;7.04;;;7.04;;
71176;SDS011;58877;51.992;4.504;2023-03-01T10:32:34;6.84;;;6.84;;
71176;SDS011;58877;51.992;4.504;2023-03-01T10:35:13;6.25;;;6.25;;
71176;SDS011;58877;51.992;4.504;2023-03-01T10:40:30;7.41;;;7.41;;
71176;SDS011;58877;51.992;4.504;2023-03-01T10:42:57;7.12;;;7.12;;
71176;SDS011;58877;51.992;4.504;2023-03-01T10:48:14;6.60;;;6.58;;
71176;SDS011;58877;51.992;4.504;2023-03-01T10:53:32;7.62;;;7.56;;
71176;SDS011;58877;51.992;4.504;2023-03-01T10:58:35;9.23;;;9.20;;
71176;SDS011;58877;51.992;4.504;2023-03-01T11:01:04;9.23;;;9.21;;
71176;SDS011;58877;51.992;4.504;2023-03-01T11:06:33;8.82;;;8.78;;
71176;SDS011;58877;51.992;4.504;2023-03-01T11:09:17;7.95;;;7.90;;
71176;SDS011;58877;51.992;4.504;2023-03-01T11:11:46;8.35;;;8.33;;
71176;SDS011;58877;51.992;4.504;2023-03-01T11:16:44;8.56;;;8.54;;
71176;SDS011;58877;51.992;4.504;2023-03-01T11:19:14;8.54;;;8.54;;
71176;SDS011;58877;51.992;4.504;2023-03-01T11:21:57;8.18;;;8.15;;
71176;SDS011;58877;51.992;4.504;2023-03-01T11:24:46;9.57;;;9.52;;
71176;SDS011;58877;51.992;4.504;2023-03-01T11:27:29;9.58;;;9.57;;
71176;SDS011;58877;51.992;4.504;2023-03-01T11:35:42;9.40;;;9.36;;
71176;SDS011;58877;51.992;4.504;2023-03-01T11:38:24;10.53;;;10.38;;
71176;SDS011;58877;51.992;4.504;2023-03-01T12:01:37;9.32;;;9.19;;
71176;SDS011;58877;51.992;4.504;2023-03-01T12:07:04;10.25;;;10.18;;
71176;SDS011;58877;51.992;4.504;2023-03-01T12:10:02;9.73;;;9.72;;
71176;SDS011;58877;51.992;4.504;2023-03-01T12:15:52;10.63;;;10.61;;
71176;SDS011;58877;51.992;4.504;2023-03-01T12:21:45;10.82;;;10.79;;
71176;SDS011;58877;51.992;4.504;2023-03-01T12:30:21;10.65;;;10.51;;
71176;SDS011;58877;51.992;4.504;2023-03-01T12:35:46;10.26;;;10.20;;
71176;SDS011;58877;51.992;4.504;2023-03-01T12:51:37;9.33;;;9.29;;
71176;SDS011;58877;51.992;4.504;2023-03-01T12:54:14;9.60;;;9.50;;
71176;SDS011;58877;51.992;4.504;2023-03-01T12:56:44;9.39;;;9.36;;
71176;SDS011;58877;51.992;4.504;2023-03-01T13:02:10;9.11;;;9.05;;
71176;SDS011;58877;51.992;4.504;2023-03-01T13:07:38;8.79;;;8.75;;
71176;SDS011;58877;51.992;4.504;2023-03-01T13:10:21;8.86;;;8.76;;
71176;SDS011;58877;51.992;4.504;2023-03-01T13:17:48;7.37;;;7.33;;
71176;SDS011;58877;51.992;4.504;2023-03-01T13:20:17;6.53;;;6.48;;
71176;SDS011;58877;51.992;4.504;2023-03-01T13:22:46;6.13;;;6.10;;
71176;SDS011;58877;51.992;4.504;2023-03-01T13:25:16;6.57;;;6.52;;
71176;SDS011;58877;51.992;4.504;2023-03-01T13:27:44;6.90;;;6.86;;
71176;SDS011;58877;51.992;4.504;2023-03-01T13:35:49;6.42;;;6.40;;
71176;SDS011;58877;51.992;4.504;2023-03-01T13:41:03;5.94;;;5.94;;
71176;SDS011;58877;51.992;4.504;2023-03-01T13:43:40;5.45;;;5.44;;
71176;SDS011;58877;51.992;4.504;2023-03-01T13:46:21;5.91;;;5.82;;
71176;SDS011;58877;51.992;4.504;2023-03-01T13:48:50;5.72;;;5.71;;
71176;SDS011;58877;51.992;4.504;2023-03-01T13:51:29;6.12;;;6.06;;
71176;SDS011;58877;51.992;4.504;2023-03-01T13:53:56;5.92;;;5.91;;
71176;SDS011;58877;51.992;4.504;2023-03-01T13:56:27;5.57;;;5.55;;
71176;SDS011;58877;51.992;4.504;2023-03-01T13:59:04;6.31;;;6.26;;
71176;SDS011;58877;51.992;4.504;2023-03-01T14:01:37;5.89;;;5.84;;
71176;SDS011;58877;51.992;4.504;2023-03-01T14:04:03;6.01;;;6.00;;
71176;SDS011;58877;51.992;4.504;2023-03-01T14:06:45;5.95;;;5.94;;
71176;SDS011;58877;51.992;4.504;2023-03-01T14:09:18;5.47;;;5.46;;
71176;SDS011;58877;51.992;4.504;2023-03-01T14:11:57;5.81;;;5.78;;
71176;SDS011;58877;51.992;4.504;2023-03-01T14:15:06;5.72;;;5.69;;
71176;SDS011;58877;51.992;4.504;2023-03-01T14:20:41;5.81;;;5.77;;
71176;SDS011;58877;51.992;4.504;2023-03-01T14:23:10;5.78;;;5.68;;
71176;SDS011;58877;51.992;4.504;2023-03-01T14:25:38;5.87;;;5.85;;
71176;SDS011;58877;51.992;4.504;2023-03-01T14:28:20;5.98;;;5.97;;
71176;SDS011;58877;51.992;4.504;2023-03-01T14:30:58;5.99;;;5.97;;
71176;SDS011;58877;51.992;4.504;2023-03-01T14:33:26;5.68;;;5.68;;
71176;SDS011;58877;51.992;4.504;2023-03-01T14:36:08;5.95;;;5.95;;
71176;SDS011;58877;51.992;4.504;2023-03-01T14:41:10;5.95;;;5.95;;
71176;SDS011;58877;51.992;4.504;2023-03-01T14:43:47;6.00;;;5.99;;
71176;SDS011;58877;51.992;4.504;2023-03-01T14:46:20;5.76;;;5.74;;
71176;SDS011;58877;51.992;4.504;2023-03-01T14:48:52;6.12;;;6.06;;
71176;SDS011;58877;51.992;4.504;2023-03-01T14:51:23;5.79;;;5.73;;
71176;SDS011;58877;51.992;4.504;2023-03-01T14:53:49;5.65;;;5.62;;
71176;SDS011;58877;51.992;4.504;2023-03-01T14:56:16;5.38;;;5.34;;
71176;SDS011;58877;51.992;4.504;2023-03-01T14:58:43;5.57;;;5.56;;
71176;SDS011;58877;51.992;4.504;2023-03-01T15:01:16;5.42;;;5.40;;
71176;SDS011;58877;51.992;4.504;2023-03-01T15:03:44;5.79;;;5.78;;
71176;SDS011;58877;51.992;4.504;2023-03-01T15:06:16;5.14;;;5.14;;
71176;SDS011;58877;51.992;4.504;2023-03-01T15:08:46;4.98;;;4.98;;
71176;SDS011;58877;51.992;4.504;2023-03-01T15:13:39;4.66;;;4.66;;
71176;SDS011;58877;51.992;4.504;2023-03-01T15:18:34;4.93;;;4.93;;
71176;SDS011;58877;51.992;4.504;2023-03-01T15:21:37;4.42;;;4.42;;
71176;SDS011;58877;51.992;4.504;2023-03-01T15:26:44;4.79;;;4.79;;
71176;SDS011;58877;51.992;4.504;2023-03-01T15:29:27;4.85;;;4.84;;
71176;SDS011;58877;51.992;4.504;2023-03-01T15:31:57;5.00;;;4.97;;
71176;SDS011;58877;51.992;4.504;2023-03-01T15:34:30;4.63;;;4.63;;
71176;SDS011;58877;51.992;4.504;2023-03-01T15:36:59;4.46;;;4.45;;
71176;SDS011;58877;51.992;4.504;2023-03-01T15:39:40;5.47;;;5.43;;
71176;SDS011;58877;51.992;4.504;2023-03-01T15:44:37;4.88;;;4.87;;
71176;SDS011;58877;51.992;4.504;2023-03-01T15:47:26;4.46;;;4.46;;
71176;SDS011;58877;51.992;4.504;2023-03-01T15:49:55;4.77;;;4.77;;
71176;SDS011;58877;51.992;4.504;2023-03-01T15:52:25;4.59;;;4.59;;
71176;SDS011;58877;51.992;4.504;2023-03-01T15:54:57;5.27;;;5.25;;
71176;SDS011;58877;51.992;4.504;2023-03-01T15:57:26;10.08;;;10.01;;
71176;SDS011;58877;51.992;4.504;2023-03-01T15:59:51;24.14;;;23.85;;
71176;SDS011;58877;51.992;4.504;2023-03-01T16:02:18;19.18;;;18.57;;
71176;SDS011;58877;51.992;4.504;2023-03-01T16:04:46;16.18;;;15.54;;
71176;SDS011;58877;51.992;4.504;2023-03-01T16:07:14;9.12;;;8.96;;
71176;SDS011;58877;51.992;4.504;2023-03-01T16:09:41;6.81;;;6.75;;
71176;SDS011;58877;51.992;4.504;2023-03-01T16:12:12;6.08;;;6.07;;
71176;SDS011;58877;51.992;4.504;2023-03-01T16:14:40;5.57;;;5.57;;
71176;SDS011;58877;51.992;4.504;2023-03-01T16:17:05;5.72;;;5.71;;
71176;SDS011;58877;51.992;4.504;2023-03-01T16:19:33;5.72;;;5.65;;
71176;SDS011;58877;51.992;4.504;2023-03-01T16:21:58;5.99;;;5.96;;
71176;SDS011;58877;51.992;4.504;2023-03-01T16:24:24;6.24;;;6.23;;
71176;SDS011;58877;51.992;4.504;2023-03-01T16:26:52;6.13;;;6.11;;
71176;SDS011;58877;51.992;4.504;2023-03-01T16:29:18;6.55;;;6.52;;
71176;SDS011;58877;51.992;4.504;2023-03-01T16:31:44;7.01;;;7.00;;
71176;SDS011;58877;51.992;4.504;2023-03-01T16:34:09;6.46;;;6.46;;
71176;SDS011;58877;51.992;4.504;2023-03-01T16:36:36;7.06;;;6.98;;
71176;SDS011;58877;51.992;4.504;2023-03-01T16:39:02;8.10;;;8.01;;
71176;SDS011;58877;51.992;4.504;2023-03-01T16:41:29;9.21;;;9.12;;
71176;SDS011;58877;51.992;4.504;2023-03-01T16:43:54;9.69;;;9.66;;
71176;SDS011;58877;51.992;4.504;2023-03-01T16:46:26;8.55;;;8.54;;
71176;SDS011;58877;51.992;4.504;2023-03-01T16:48:53;6.90;;;6.90;;
71176;SDS011;58877;51.992;4.504;2023-03-01T16:51:20;6.62;;;6.62;;
71176;SDS011;58877;51.992;4.504;2023-03-01T16:53:46;6.64;;;6.62;;
71176;SDS011;58877;51.992;4.504;2023-03-01T16:56:12;7.50;;;7.46;;
71176;SDS011;58877;51.992;4.504;2023-03-01T16:58:39;6.87;;;6.79;;
71176;SDS011;58877;51.992;4.504;2023-03-01T17:01:06;7.00;;;6.98;;
71176;SDS011;58877;51.992;4.504;2023-03-01T17:03:37;6.59;;;6.56;;
71176;SDS011;58877;51.992;4.504;2023-03-01T17:06:04;6.58;;;6.55;;
71176;SDS011;58877;51.992;4.504;2023-03-01T17:08:33;6.35;;;6.33;;
71176;SDS011;58877;51.992;4.504;2023-03-01T17:11:07;6.67;;;6.62;;